Kakisa, Canada
Current Conditions -  °F | °C
As of 2:00 AM on Friday 19 Dec 2014 (Local Time) from CYHY Reporting Station
Few Clouds Few Clouds  
Wind Chill: -17°   Ceiling: Unl
Heat Index: -6°   Visibility: 15mi
Dew Point: -9°   Wind: 5mph
Humidity: 84%   Direction: 160°SSE
Pressure: 29.82"   Gusts: NA
Location:  60.93°N, 117.42°W
Report Text: CYHY 190900Z 16004KT 15SM FEW030 M21/M23 A2982 RMK SC1 SLP116
Loading
Personal Weather Stations






























Interactive Weather Map New forecast layout! Learn more

10-Day Weather Forecast

Advertisements
Track Severe Weather on mobile